createdAt,value
2023-05-22T00:01:57.147Z,14.07
2023-05-22T00:04:30.749Z,14.13
2023-05-22T00:06:59.610Z,14.07
2023-05-22T00:09:28.543Z,14.04
2023-05-22T00:11:57.464Z,14.04
2023-05-22T00:14:26.244Z,14.19
2023-05-22T00:16:57.165Z,14.17
2023-05-22T00:19:26.319Z,14.20
2023-05-22T00:21:55.253Z,14.06
2023-05-22T00:24:24.101Z,14.08
2023-05-22T00:26:52.947Z,14.43
2023-05-22T00:29:22.358Z,14.57
2023-05-22T00:31:51.312Z,14.62
2023-05-22T00:34:23.399Z,14.63
2023-05-22T00:36:52.261Z,14.62
2023-05-22T00:39:21.266Z,14.77
2023-05-22T00:41:50.305Z,14.76
2023-05-22T00:44:19.273Z,14.89
2023-05-22T00:46:48.275Z,14.87
2023-05-22T00:49:17.301Z,15.00
2023-05-22T00:51:46.605Z,15.01
2023-05-22T00:54:16.263Z,15.06
2023-05-22T00:56:46.330Z,15.13
2023-05-22T00:59:16.486Z,15.06
2023-05-22T01:01:45.943Z,15.19
2023-05-22T01:04:16.291Z,15.20
2023-05-22T01:06:47.265Z,15.26
2023-05-22T01:09:16.619Z,15.39
2023-05-22T01:11:52.973Z,15.43
2023-05-22T01:14:52.808Z,15.50
2023-05-22T01:17:48.775Z,15.46
2023-05-22T01:20:25.473Z,15.62
2023-05-22T01:23:15.889Z,15.61
2023-05-22T01:25:50.665Z,15.70
2023-05-22T01:28:25.455Z,15.74
2023-05-22T01:30:56.982Z,15.68
2023-05-22T01:33:27.695Z,15.77
2023-05-22T01:36:01.064Z,15.84
2023-05-22T01:38:33.624Z,15.86
2023-05-22T01:41:03.122Z,15.91
2023-05-22T01:43:32.535Z,15.96
2023-05-22T01:46:02.698Z,15.80
2023-05-22T01:48:31.606Z,16.06
2023-05-22T01:51:07.089Z,16.19
2023-05-22T01:53:56.496Z,16.17
2023-05-22T01:56:32.533Z,16.25
2023-05-22T01:59:15.870Z,16.33
2023-05-22T02:01:45.252Z,16.36
2023-05-22T02:04:17.068Z,16.44
2023-05-22T02:06:46.906Z,16.66
2023-05-22T02:09:17.967Z,16.62
2023-05-22T02:11:49.091Z,16.77
2023-05-22T02:14:19.535Z,16.87
2023-05-22T02:16:49.586Z,17.12
2023-05-22T02:19:18.662Z,17.33
2023-05-22T02:21:48.465Z,17.56
2023-05-22T02:24:17.516Z,18.26
2023-05-22T02:26:48.747Z,18.87
2023-05-22T02:29:21.686Z,19.36
2023-05-22T02:31:50.733Z,19.88
2023-05-22T02:34:19.958Z,20.22
2023-05-22T02:36:48.849Z,20.78
2023-05-22T02:39:20.112Z,21.40
2023-05-22T02:41:48.946Z,22.14
2023-05-22T02:44:17.726Z,22.44
2023-05-22T02:46:46.599Z,22.56
2023-05-22T02:49:16.448Z,22.96
2023-05-22T02:51:48.385Z,22.79
2023-05-22T02:54:17.445Z,22.83
2023-05-22T02:56:46.588Z,23.11
2023-05-22T02:59:15.510Z,22.93
2023-05-22T03:01:45.194Z,22.98
2023-05-22T03:04:14.688Z,23.56
2023-05-22T03:06:47.091Z,23.80
2023-05-22T03:09:16.961Z,23.79
2023-05-22T03:11:47.039Z,23.76
2023-05-22T03:14:16.304Z,23.74
2023-05-22T03:16:45.155Z,24.03
2023-05-22T03:19:15.535Z,24.35
2023-05-22T03:21:45.239Z,24.20
2023-05-22T03:24:14.766Z,24.53
2023-05-22T03:26:44.622Z,24.34
2023-05-22T03:29:20.091Z,24.24
2023-05-22T03:31:49.185Z,24.26
2023-05-22T03:34:18.155Z,24.31
2023-05-22T03:36:49.517Z,24.29
2023-05-22T03:39:19.148Z,24.38
2023-05-22T03:42:10.818Z,24.45
2023-05-22T03:44:43.773Z,24.11
2023-05-22T03:47:12.649Z,24.17
2023-05-22T03:49:41.649Z,24.10
2023-05-22T03:52:13.626Z,24.96
2023-05-22T03:54:42.638Z,25.27
2023-05-22T03:57:11.496Z,25.43
2023-05-22T03:59:40.205Z,25.41
2023-05-22T04:02:13.659Z,25.53
2023-05-22T04:04:42.448Z,25.89
2023-05-22T04:07:14.061Z,25.69
2023-05-22T04:09:42.964Z,25.42
2023-05-22T04:12:12.126Z,25.41
2023-05-22T04:14:40.846Z,25.62
2023-05-22T04:17:09.962Z,25.47
2023-05-22T04:19:39.769Z,25.31
2023-05-22T04:22:08.629Z,25.71
2023-05-22T04:24:42.182Z,25.89
2023-05-22T04:27:11.112Z,26.07
2023-05-22T04:29:42.468Z,25.78
2023-05-22T04:32:11.497Z,26.04
2023-05-22T04:34:40.330Z,26.33
2023-05-22T04:37:10.846Z,26.50
2023-05-22T04:39:41.184Z,26.64
2023-05-22T04:42:10.295Z,26.61
2023-05-22T04:44:39.276Z,26.70
2023-05-22T04:47:10.594Z,26.59
2023-05-22T04:49:40.025Z,26.64
2023-05-22T04:52:08.944Z,26.59
2023-05-22T04:54:38.085Z,26.69
2023-05-22T04:57:07.791Z,26.89
2023-05-22T04:59:41.286Z,27.11
2023-05-22T05:02:10.978Z,26.78
2023-05-22T05:04:39.896Z,27.03
2023-05-22T05:07:09.762Z,27.05
2023-05-22T05:09:39.298Z,26.76
2023-05-22T05:12:08.326Z,26.57
2023-05-22T05:14:37.499Z,26.67
2023-05-22T05:17:06.817Z,26.54
2023-05-22T05:19:37.075Z,27.02
2023-05-22T05:22:06.267Z,26.96
2023-05-22T05:24:35.440Z,27.01
2023-05-22T05:27:04.546Z,26.85
2023-05-22T05:29:33.581Z,27.18
2023-05-22T05:32:08.444Z,27.18
2023-05-22T05:34:47.779Z,27.21
2023-05-22T05:37:35.052Z,27.44
2023-05-22T05:40:08.024Z,27.81
2023-05-22T05:42:41.867Z,28.09
2023-05-22T05:45:12.228Z,27.92
2023-05-22T05:47:42.386Z,27.86
2023-05-22T05:50:11.994Z,27.56
2023-05-22T05:52:40.764Z,27.10
2023-05-22T05:55:14.448Z,26.71
2023-05-22T05:57:43.446Z,26.68
2023-05-22T06:00:17.689Z,26.79
2023-05-22T06:02:50.687Z,27.02
2023-05-22T06:05:30.280Z,26.75
2023-05-22T06:08:14.131Z,26.41
2023-05-22T06:10:43.529Z,25.90
2023-05-22T06:13:14.803Z,25.84
2023-05-22T06:15:44.427Z,25.90
2023-05-22T06:18:13.407Z,25.85
2023-05-22T06:20:43.053Z,26.57
2023-05-22T06:23:11.950Z,26.57
2023-05-22T06:25:41.503Z,26.12
2023-05-22T06:28:10.826Z,26.05
2023-05-22T06:30:40.625Z,26.35
2023-05-22T06:33:15.372Z,26.91
2023-05-22T06:35:44.447Z,27.36
2023-05-22T06:38:13.844Z,27.73
2023-05-22T06:40:44.467Z,27.50
2023-05-22T06:43:21.171Z,27.72
2023-05-22T06:46:01.440Z,27.94
2023-05-22T06:48:50.288Z,27.48
2023-05-22T06:51:25.229Z,27.19
2023-05-22T06:54:04.480Z,27.07
2023-05-22T06:56:34.309Z,26.82
2023-05-22T06:59:09.100Z,26.83
2023-05-22T07:01:49.978Z,26.57
2023-05-22T07:04:26.924Z,26.35
2023-05-22T07:07:04.366Z,26.30
2023-05-22T07:09:35.630Z,26.25
2023-05-22T07:12:06.392Z,26.24
2023-05-22T07:14:35.506Z,26.33
2023-05-22T07:17:05.208Z,26.45
2023-05-22T07:19:39.741Z,26.36
2023-05-22T07:22:08.897Z,26.21
2023-05-22T07:24:39.905Z,26.22
2023-05-22T07:27:10.130Z,26.71
2023-05-22T07:29:40.042Z,27.13
2023-05-22T07:32:10.205Z,27.75
2023-05-22T07:34:39.659Z,28.41
2023-05-22T07:37:12.445Z,28.82
2023-05-22T07:39:43.238Z,28.84
2023-05-22T07:42:12.750Z,28.38
2023-05-22T07:44:48.357Z,27.83
2023-05-22T07:47:19.474Z,27.58
2023-05-22T07:49:48.957Z,27.28
2023-05-22T07:52:17.662Z,27.02
2023-05-22T07:54:47.248Z,26.82
2023-05-22T07:57:18.303Z,26.98
2023-05-22T07:59:48.224Z,26.99
2023-05-22T08:02:19.763Z,26.88
2023-05-22T08:04:49.487Z,26.70
2023-05-22T08:07:18.560Z,26.50
2023-05-22T08:09:47.659Z,26.13
2023-05-22T08:12:16.758Z,26.30
2023-05-22T08:14:45.644Z,26.29
2023-05-22T08:17:14.362Z,26.24
2023-05-22T08:19:43.467Z,26.48
2023-05-22T08:22:12.322Z,26.44
2023-05-22T08:24:43.784Z,26.84
2023-05-22T08:27:12.689Z,26.97
2023-05-22T08:29:41.559Z,27.04
2023-05-22T08:32:10.507Z,26.97
2023-05-22T08:34:40.956Z,26.79
2023-05-22T08:37:10.399Z,26.80
2023-05-22T08:39:39.321Z,26.78
2023-05-22T08:42:09.401Z,26.74
2023-05-22T08:44:38.223Z,26.79
2023-05-22T08:47:11.979Z,26.85
2023-05-22T08:49:41.848Z,26.85
2023-05-22T08:52:23.159Z,27.03
2023-05-22T08:54:56.842Z,26.94
2023-05-22T08:57:26.934Z,26.82
2023-05-22T08:59:55.771Z,26.51
2023-05-22T09:02:26.534Z,26.55
2023-05-22T09:04:56.102Z,26.44
2023-05-22T09:07:26.060Z,26.38
2023-05-22T09:09:55.101Z,26.17
2023-05-22T09:12:27.025Z,26.06
2023-05-22T09:14:56.871Z,26.08
2023-05-22T09:17:28.119Z,26.03
2023-05-22T09:20:01.267Z,26.07
2023-05-22T09:22:39.446Z,25.91
2023-05-22T09:25:08.764Z,25.77
2023-05-22T09:27:37.870Z,25.76
2023-05-22T09:30:10.120Z,25.70
2023-05-22T09:32:39.649Z,25.67
2023-05-22T09:35:09.753Z,25.67
2023-05-22T09:37:39.097Z,25.52
2023-05-22T09:40:14.626Z,25.43
2023-05-22T09:42:46.673Z,25.57
2023-05-22T09:45:15.861Z,25.51
2023-05-22T09:47:50.430Z,25.49
2023-05-22T09:50:19.395Z,25.43
2023-05-22T09:52:51.607Z,25.49
2023-05-22T09:55:24.589Z,25.56
2023-05-22T09:57:55.686Z,25.71
2023-05-22T10:00:32.065Z,26.01
2023-05-22T10:03:16.715Z,26.04
2023-05-22T10:05:53.019Z,26.15
2023-05-22T10:08:26.934Z,26.21
2023-05-22T10:10:56.291Z,26.18
2023-05-22T10:13:31.589Z,26.28
2023-05-22T10:16:03.938Z,26.39
2023-05-22T10:18:33.953Z,26.11
2023-05-22T10:21:03.633Z,26.36
2023-05-22T10:23:32.908Z,26.34
2023-05-22T10:26:02.597Z,26.23
2023-05-22T10:28:52.631Z,26.17
2023-05-22T10:31:37.961Z,26.05
2023-05-22T10:34:48.385Z,25.82
2023-05-22T10:37:59.064Z,25.85
2023-05-22T10:40:36.358Z,26.02
2023-05-22T10:43:05.497Z,26.21
2023-05-22T10:45:34.335Z,26.39
2023-05-22T10:48:05.071Z,26.50
2023-05-22T10:50:35.690Z,26.55
2023-05-22T10:53:26.156Z,26.55
2023-05-22T10:56:00.413Z,26.53
2023-05-22T10:58:32.833Z,26.40
2023-05-22T11:01:20.941Z,26.35
2023-05-22T11:03:58.997Z,26.34
2023-05-22T11:06:38.696Z,26.38
2023-05-22T11:09:32.643Z,26.45
2023-05-22T11:12:25.001Z,26.56
2023-05-22T11:14:58.894Z,26.64
2023-05-22T11:17:29.992Z,26.50
2023-05-22T11:20:20.050Z,26.36
2023-05-22T11:23:00.248Z,26.14
2023-05-22T11:25:30.888Z,25.94
2023-05-22T11:28:00.037Z,25.92
2023-05-22T11:30:31.633Z,25.68
2023-05-22T11:33:02.049Z,25.56
2023-05-22T11:35:31.032Z,25.42
2023-05-22T11:38:00.038Z,25.43
2023-05-22T11:40:30.335Z,25.30
2023-05-22T11:42:59.242Z,25.23
2023-05-22T11:45:28.264Z,24.92
2023-05-22T11:47:58.172Z,25.14
2023-05-22T11:50:41.110Z,25.14
2023-05-22T11:53:11.691Z,25.10
2023-05-22T11:55:40.408Z,25.18
2023-05-22T11:58:09.202Z,25.19
2023-05-22T12:00:39.282Z,25.15
2023-05-22T12:03:08.495Z,25.16
2023-05-22T12:05:40.576Z,25.16
2023-05-22T12:08:09.644Z,25.14
2023-05-22T12:10:38.918Z,25.16
2023-05-22T12:13:08.470Z,25.16
2023-05-22T12:15:40.296Z,25.14
2023-05-22T12:18:12.487Z,25.11
2023-05-22T12:20:44.764Z,25.13
2023-05-22T12:23:24.364Z,25.02
2023-05-22T12:26:03.454Z,25.04
2023-05-22T12:28:35.435Z,24.92
2023-05-22T12:31:04.368Z,24.82
2023-05-22T12:33:33.202Z,24.78
2023-05-22T12:36:08.014Z,24.84
2023-05-22T12:38:40.085Z,24.83
2023-05-22T12:41:08.834Z,24.84
2023-05-22T12:43:37.688Z,24.81
2023-05-22T12:46:06.736Z,24.85
2023-05-22T12:48:38.716Z,24.88
2023-05-22T12:51:07.944Z,24.78
2023-05-22T12:53:36.881Z,24.83
2023-05-22T12:56:06.697Z,24.83
2023-05-22T12:58:35.708Z,24.78
2023-05-22T13:01:04.790Z,24.78
2023-05-22T13:03:33.700Z,24.82
2023-05-22T13:06:02.765Z,24.77
2023-05-22T13:08:31.585Z,24.86
2023-05-22T13:11:00.400Z,24.91
2023-05-22T13:13:29.305Z,24.90
2023-05-22T13:15:58.368Z,25.01
2023-05-22T13:18:29.689Z,24.95
2023-05-22T13:21:00.718Z,24.91
2023-05-22T13:23:29.657Z,24.95
2023-05-22T13:25:58.616Z,24.90
2023-05-22T13:28:27.572Z,24.88
2023-05-22T13:30:57.368Z,24.91
2023-05-22T13:33:26.727Z,24.82
2023-05-22T13:35:55.705Z,24.76
2023-05-22T13:38:24.727Z,24.72
2023-05-22T13:40:53.604Z,24.72
2023-05-22T13:43:22.671Z,24.67
2023-05-22T13:45:51.583Z,24.38
2023-05-22T13:48:20.586Z,24.63
2023-05-22T13:50:49.493Z,24.53
2023-05-22T13:53:18.417Z,24.67
2023-05-22T13:55:47.471Z,24.65
2023-05-22T13:58:16.386Z,24.64
2023-05-22T14:00:45.325Z,24.71
2023-05-22T14:03:18.152Z,24.65
2023-05-22T14:05:46.949Z,24.31
2023-05-22T14:08:15.863Z,24.45
2023-05-22T14:10:44.591Z,24.41
2023-05-22T14:13:13.724Z,24.38
2023-05-22T14:15:43.317Z,24.19
2023-05-22T14:18:12.495Z,24.19
2023-05-22T14:20:42.121Z,24.06
2023-05-22T14:23:11.071Z,23.91
2023-05-22T14:25:43.882Z,23.81
2023-05-22T14:28:17.017Z,23.69
2023-05-22T14:30:46.197Z,23.71
2023-05-22T14:33:15.323Z,23.52
2023-05-22T14:35:44.182Z,23.45
2023-05-22T14:38:12.899Z,23.23
2023-05-22T14:40:41.921Z,23.22
2023-05-22T14:43:10.982Z,23.06
2023-05-22T14:45:40.267Z,22.90
2023-05-22T14:48:11.078Z,22.73
2023-05-22T14:50:40.195Z,22.68
2023-05-22T14:53:09.130Z,22.41
2023-05-22T14:55:38.151Z,22.24
2023-05-22T14:58:07.201Z,22.06
2023-05-22T15:00:36.261Z,21.95
2023-05-22T15:03:05.299Z,21.79
2023-05-22T15:05:34.432Z,21.57
2023-05-22T15:08:03.189Z,21.35
2023-05-22T15:10:32.009Z,21.17
2023-05-22T15:13:00.909Z,21.12
2023-05-22T15:15:29.829Z,20.93
2023-05-22T15:18:01.410Z,20.67
2023-05-22T15:20:30.320Z,20.58
2023-05-22T15:23:00.849Z,20.45
2023-05-22T15:25:29.817Z,20.38
2023-05-22T15:28:01.046Z,20.39
2023-05-22T15:30:31.665Z,20.16
2023-05-22T15:33:04.193Z,20.12
2023-05-22T15:35:33.330Z,19.94
2023-05-22T15:38:03.812Z,19.92
2023-05-22T15:40:33.184Z,19.80
2023-05-22T15:43:04.865Z,19.68
2023-05-22T15:45:34.701Z,19.68
2023-05-22T15:48:05.784Z,18.72
2023-05-22T15:50:35.482Z,19.46
2023-05-22T15:53:04.577Z,19.40
2023-05-22T15:55:34.567Z,19.50
2023-05-22T15:58:03.666Z,19.46
2023-05-22T16:00:33.089Z,19.40
2023-05-22T16:03:02.178Z,19.21
2023-05-22T16:05:35.625Z,19.03
2023-05-22T16:08:04.622Z,19.05
2023-05-22T16:10:35.308Z,18.86
2023-05-22T16:13:06.228Z,18.82
2023-05-22T16:15:35.100Z,18.76
2023-05-22T16:18:05.564Z,18.60
2023-05-22T16:20:35.883Z,18.50
2023-05-22T16:23:04.844Z,18.38
2023-05-22T16:25:33.866Z,18.41
2023-05-22T16:28:02.642Z,18.43
2023-05-22T16:30:31.514Z,18.49
2023-05-22T16:33:00.533Z,18.49
2023-05-22T16:35:30.111Z,18.45
2023-05-22T16:38:00.157Z,18.57
2023-05-22T16:40:31.368Z,18.60
2023-05-22T16:43:00.187Z,18.35
2023-05-22T16:45:29.379Z,18.56
2023-05-22T16:47:58.128Z,18.69
2023-05-22T16:50:28.240Z,18.66
2023-05-22T16:52:57.281Z,18.82
2023-05-22T16:55:26.472Z,18.83
2023-05-22T16:57:56.148Z,18.88
2023-05-22T17:00:25.446Z,18.88
2023-05-22T17:02:54.668Z,19.02
2023-05-22T17:05:25.009Z,18.92
2023-05-22T17:07:54.124Z,18.92
2023-05-22T17:10:23.221Z,18.90
2023-05-22T17:12:52.782Z,18.90
2023-05-22T17:15:21.913Z,18.87
2023-05-22T17:17:51.521Z,18.73
2023-05-22T17:20:25.430Z,18.65
2023-05-22T17:22:56.717Z,18.30
2023-05-22T17:25:25.621Z,18.54
2023-05-22T17:27:54.384Z,18.50
2023-05-22T17:30:23.644Z,18.34
2023-05-22T17:32:54.086Z,18.34
2023-05-22T17:35:23.129Z,18.23
2023-05-22T17:37:51.923Z,18.19
2023-05-22T17:40:21.098Z,18.02
2023-05-22T17:42:50.230Z,17.67
2023-05-22T17:45:23.472Z,17.91
2023-05-22T17:47:55.019Z,17.88
2023-05-22T17:50:24.085Z,17.80
2023-05-22T17:52:53.072Z,17.78
2023-05-22T17:55:22.224Z,17.34
2023-05-22T17:57:51.300Z,17.70
2023-05-22T18:00:20.743Z,17.54
2023-05-22T18:02:49.705Z,17.54
2023-05-22T18:05:18.548Z,17.43
2023-05-22T18:07:47.573Z,17.24
2023-05-22T18:10:17.056Z,17.34
2023-05-22T18:12:46.738Z,17.34
2023-05-22T18:15:16.314Z,17.15
2023-05-22T18:17:45.234Z,17.21
2023-05-22T18:20:14.263Z,17.05
2023-05-22T18:22:46.504Z,16.76
2023-05-22T18:25:15.769Z,17.01
2023-05-22T18:27:45.898Z,17.01
2023-05-22T18:30:15.269Z,16.58
2023-05-22T18:32:44.413Z,16.79
2023-05-22T18:35:13.918Z,16.77
2023-05-22T18:37:43.231Z,16.76
2023-05-22T18:40:13.440Z,16.59
2023-05-22T18:42:43.983Z,16.24
2023-05-22T18:45:13.052Z,16.42
2023-05-22T18:47:42.002Z,16.48
2023-05-22T18:50:11.668Z,16.31
2023-05-22T18:52:41.049Z,16.25
2023-05-22T18:55:10.022Z,16.16
2023-05-22T18:57:39.251Z,16.11
2023-05-22T19:00:08.850Z,15.89
2023-05-22T19:02:37.777Z,15.86
2023-05-22T19:05:07.879Z,15.85
2023-05-22T19:07:36.835Z,15.52
2023-05-22T19:10:08.093Z,15.30
2023-05-22T19:12:37.396Z,15.57
2023-05-22T19:15:07.760Z,15.46
2023-05-22T19:17:36.693Z,15.36
2023-05-22T19:20:09.601Z,15.35
2023-05-22T19:22:39.250Z,15.26
2023-05-22T19:25:08.278Z,14.99
2023-05-22T19:27:38.958Z,15.21
2023-05-22T19:30:08.653Z,15.24
2023-05-22T19:32:37.766Z,15.07
2023-05-22T19:35:07.093Z,15.09
2023-05-22T19:37:38.868Z,14.68
2023-05-22T19:40:10.556Z,14.64
2023-05-22T19:42:40.295Z,14.87
2023-05-22T19:45:09.660Z,14.86
2023-05-22T19:47:39.019Z,14.93
2023-05-22T19:50:09.232Z,14.80
2023-05-22T19:52:38.633Z,14.77
2023-05-22T19:55:07.711Z,14.77
2023-05-22T19:57:36.883Z,14.83
2023-05-22T20:00:08.346Z,14.67
2023-05-22T20:02:37.215Z,14.77
2023-05-22T20:05:10.238Z,14.77
2023-05-22T20:07:49.575Z,14.69
2023-05-22T20:10:18.697Z,14.54
2023-05-22T20:12:47.833Z,14.60
2023-05-22T20:15:18.525Z,14.71
2023-05-22T20:17:52.831Z,14.70
2023-05-22T20:20:22.147Z,14.68
2023-05-22T20:22:52.093Z,14.49
2023-05-22T20:25:22.197Z,14.61
2023-05-22T20:27:51.922Z,14.54
2023-05-22T20:30:20.813Z,14.57
2023-05-22T20:32:49.842Z,14.53
2023-05-22T20:35:19.385Z,14.50
2023-05-22T20:37:51.201Z,14.40
2023-05-22T20:40:20.160Z,14.45
2023-05-22T20:42:49.154Z,14.36
2023-05-22T20:45:18.303Z,14.29
2023-05-22T20:47:47.293Z,14.28
2023-05-22T20:50:16.485Z,14.31
2023-05-22T20:52:46.547Z,14.20
2023-05-22T20:55:15.954Z,14.23
2023-05-22T20:57:44.690Z,14.02
2023-05-22T21:00:14.576Z,14.12
2023-05-22T21:02:43.440Z,14.03
2023-05-22T21:05:12.663Z,14.01
2023-05-22T21:07:41.911Z,14.01
2023-05-22T21:10:12.091Z,13.94
2023-05-22T21:12:41.220Z,13.88
2023-05-22T21:15:10.716Z,13.77
2023-05-22T21:17:41.060Z,13.64
2023-05-22T21:20:11.331Z,13.46
2023-05-22T21:22:40.663Z,13.43
2023-05-22T21:25:10.218Z,13.40
2023-05-22T21:27:38.940Z,13.26
2023-05-22T21:30:08.962Z,13.29
2023-05-22T21:32:38.340Z,12.65
2023-05-22T21:35:07.749Z,12.84
2023-05-22T21:37:40.766Z,13.12
2023-05-22T21:40:09.867Z,12.94
2023-05-22T21:42:46.406Z,13.13
2023-05-22T21:45:16.285Z,12.96
2023-05-22T21:47:45.200Z,12.88
2023-05-22T21:50:13.965Z,12.87
2023-05-22T21:52:42.681Z,12.78
2023-05-22T21:55:11.912Z,12.78
2023-05-22T21:57:42.979Z,12.80
2023-05-22T22:00:12.682Z,12.80
2023-05-22T22:02:42.551Z,12.74
2023-05-22T22:05:14.423Z,12.57
2023-05-22T22:07:43.440Z,12.46
2023-05-22T22:10:12.672Z,12.50
2023-05-22T22:12:41.857Z,12.55
2023-05-22T22:15:11.219Z,12.49
2023-05-22T22:17:41.341Z,12.39
2023-05-22T22:20:10.818Z,12.52
2023-05-22T22:22:41.642Z,12.39
2023-05-22T22:25:10.754Z,12.24
2023-05-22T22:27:39.600Z,12.26
2023-05-22T22:30:09.200Z,12.32
2023-05-22T22:32:38.541Z,12.26
2023-05-22T22:35:08.601Z,12.17
2023-05-22T22:37:38.403Z,12.23
2023-05-22T22:40:07.763Z,12.11
2023-05-22T22:42:37.124Z,12.09
2023-05-22T22:45:07.756Z,12.18
2023-05-22T22:47:37.076Z,11.99
2023-05-22T22:50:06.184Z,11.83
2023-05-22T22:52:35.480Z,11.99
2023-05-22T22:55:06.040Z,11.99
2023-05-22T22:57:35.114Z,11.89
2023-05-22T23:00:04.792Z,11.55
2023-05-22T23:02:33.851Z,11.92
2023-05-22T23:05:02.890Z,11.94
2023-05-22T23:07:31.861Z,11.95
2023-05-22T23:10:01.331Z,12.05
2023-05-22T23:12:30.562Z,12.13
2023-05-22T23:14:59.449Z,12.53
2023-05-22T23:17:28.418Z,12.76
2023-05-22T23:19:57.869Z,12.85
2023-05-22T23:22:27.108Z,13.15
2023-05-22T23:24:55.787Z,13.35
2023-05-22T23:27:24.751Z,13.50
2023-05-22T23:29:53.763Z,13.75
2023-05-22T23:32:23.303Z,13.95
2023-05-22T23:34:52.091Z,14.28
2023-05-22T23:37:21.251Z,14.48
2023-05-22T23:39:49.952Z,14.58
2023-05-22T23:42:19.519Z,15.01
2023-05-22T23:44:48.192Z,15.24
2023-05-22T23:47:18.778Z,15.57
2023-05-22T23:49:47.837Z,15.69
2023-05-22T23:52:17.281Z,15.94
2023-05-22T23:54:46.270Z,16.26
2023-05-22T23:57:15.022Z,16.17
2023-05-22T23:59:44.599Z,15.65
